Hovedside
METAR-TAF:

METAR-TAF

Lufthavner :

Cristiano Ronaldo internasjonale lufthavn

Funchal, Madeira, Portugal

breddegrad: 32-41-52N, lengdegrad: 016-46-28W, høyde over havet: 59 m

Gjeldene værobservasjon

Denne rapporten ble laget for 36 minutter siden, klokken 15:00 UTC
Vind 13 kt fra Nord-nordøst, skiftende mellom Nord og Øst-nordøst
Temperatur 25°C
Luftfuktighet 61%
Trykk 1021 hPa
Sikt 10 km eller mer
Få skyer i en høyde av 1600 ft

METAR: LPMA 201500Z 03013KT 360V060 9999 FEW016 25/17 Q1021

Tid: 16:36 (15:36 UTC)

Varsel

Denne rapporten ble laget for 4 timer og 36 minutter siden, klokken 11:00 UTC
Varsel gyldig fra 20. klokken 12 UTC til 21. klokken 12 UTC
Vind 12 kt fra Nord-nordøst
Sikt 10 km eller mer
Spredte skyer i en høyde av 1500 ft
Midlertidig
fra 20. klokken 12 UTC til 21. klokken 12 UTC
Få skyer i en høyde av 1500 ft
Brutte skyer i en høyde av 3000 ft

TAF: LPMA 201100Z 2012/2112 03012KT 9999 SCT015 TEMPO 2012/2112 FEW015 BKN030

Værobservasjoner og værvarsel for over 4000 flyplasser (METAR- og TAF-rapporter).

Tilgjengelige stasjoner er representert av de røde og gule prikkene på kartet.

Hold musepekeren over prikken for å se navnet på stasjonen.

Klikk så for å se værobservasjoner og -varsler.

For å forandre kartet kan du klikke på den grønne knappen med svart kryss for å zoome inn, på den grønne knappen med strek for å zoome ut, eller på de grønne pilene for å se tilstøtende kart.


METAR-TAF: